Time;durP1;ratioP1;P1;durP2;ratioP2;P2;SDS_P1;SDS_P2;PMS_P1;PMS_P2;Temp;Humidity;BMP_temperature;BMP_pressure;BME280_temperature;BME280_humidity;BME280_pressure;Samples;Min_cycle;Max_cycle;Signal;HPM_P1;HPM_P2
2020/12/02 00:00:16;;;;;;;12.32;2.45;;;21.30;65.30;;;;;;5001000;28;20105;-64
2020/12/02 00:02:57;;;;;;;9.05;2.72;;;21.20;65.60;;;;;;4999453;28;20058;-64
2020/12/02 00:05:25;;;;;;;10.57;2.40;;;21.10;66.10;;;;;;4982941;28;20082;-64
2020/12/02 00:07:59;;;;;;;16.63;2.63;;;20.90;66.60;;;;;;5001090;28;20948;-64
2020/12/02 00:10:26;;;;;;;8.13;1.95;;;20.90;67.40;;;;;;5001343;28;20109;-64
2020/12/02 00:12:53;;;;;;;11.50;2.22;;;20.80;68.10;;;;;;5000366;28;20045;-64
2020/12/02 00:15:20;;;;;;;12.93;1.92;;;20.70;68.70;;;;;;5000609;28;20033;-63
2020/12/02 00:17:46;;;;;;;7.15;2.00;;;20.30;69.70;;;;;;4998395;28;20152;-64
2020/12/02 00:20:13;;;;;;;6.70;2.22;;;20.10;70.10;;;;;;4987802;28;20392;-62
2020/12/02 00:22:40;;;;;;;8.75;2.13;;;20.10;70.60;;;;;;5001928;28;20034;-63
2020/12/02 00:25:07;;;;;;;17.23;2.17;;;20.10;70.30;;;;;;5001533;28;20064;-65
2020/12/02 00:27:33;;;;;;;8.32;1.70;;;20.10;70.40;;;;;;5001990;28;20038;-64
2020/12/02 00:30:00;;;;;;;8.50;2.10;;;19.90;71.60;;;;;;5000603;28;20056;-64
2020/12/02 00:32:38;;;;;;;7.82;1.70;;;19.80;71.50;;;;;;5000790;28;20117;-63
2020/12/02 00:35:08;;;;;;;12.80;2.65;;;19.80;72.00;;;;;;5000789;28;20096;-64
2020/12/02 00:37:35;;;;;;;17.40;2.63;;;19.60;72.10;;;;;;4997604;28;20463;-64
2020/12/02 00:40:03;;;;;;;7.03;2.42;;;19.50;72.20;;;;;;4999571;28;20025;-63
2020/12/02 00:42:29;;;;;;;9.75;2.53;;;19.10;73.30;;;;;;5000913;28;20327;-64
2020/12/02 00:44:56;;;;;;;11.02;2.05;;;18.50;75.80;;;;;;5000373;28;20657;-63
2020/12/02 00:47:25;;;;;;;13.63;2.45;;;18.20;76.50;;;;;;5001842;28;20044;-63
2020/12/02 00:49:55;;;;;;;11.65;3.58;;;18.00;77.50;;;;;;4998419;28;20050;-63
2020/12/02 00:52:23;;;;;;;13.93;2.50;;;17.70;78.60;;;;;;4981544;28;20034;-64
2020/12/02 00:54:49;;;;;;;8.40;2.07;;;17.40;80.20;;;;;;5000436;28;20022;-63
2020/12/02 00:57:30;;;;;;;11.43;2.72;;;17.30;80.60;;;;;;5000602;28;20018;-64
2020/12/02 00:59:59;;;;;;;8.25;2.50;;;17.10;81.10;;;;;;5000386;28;20025;-63
2020/12/02 01:02:29;;;;;;;11.88;2.83;;;17.00;82.40;;;;;;5000176;28;20038;-64
2020/12/02 01:04:58;;;;;;;14.00;2.53;;;16.80;82.70;;;;;;4998140;28;20023;-64
2020/12/02 01:07:28;;;;;;;11.82;2.78;;;16.70;81.80;;;;;;5000576;28;20289;-64
2020/12/02 01:09:55;;;;;;;16.35;3.03;;;16.50;83.10;;;;;;5001485;28;20037;-64
2020/12/02 01:12:22;;;;;;;13.80;3.55;;;16.50;82.70;;;;;;4981527;28;20320;-63
2020/12/02 01:14:49;;;;;;;14.63;2.53;;;16.30;82.20;;;;;;4999934;28;20455;-63
2020/12/02 01:17:16;;;;;;;11.00;3.42;;;16.30;82.20;;;;;;4996720;28;20048;-63
2020/12/02 01:19:43;;;;;;;9.50;2.50;;;16.20;83.20;;;;;;4999515;28;20025;-64
2020/12/02 01:22:29;;;;;;;18.35;3.65;;;16.10;83.00;;;;;;4999486;28;20376;-63
2020/12/02 01:25:06;;;;;;;6.50;2.80;;;16.00;82.20;;;;;;4999932;28;20038;-63
2020/12/02 01:27:50;;;;;;;8.55;2.40;;;15.90;82.80;;;;;;5001769;28;20412;-64
2020/12/02 01:30:19;;;;;;;13.75;3.05;;;15.70;83.10;;;;;;4996916;28;20420;-64
2020/12/02 01:32:46;;;;;;;10.20;2.25;;;15.70;83.00;;;;;;4999115;28;20655;-64
2020/12/02 01:37:52;;;;;;;11.57;2.80;;;15.50;84.60;;;;;;5263896;22;20054;-63
2020/12/02 01:40:24;;;;;;;12.00;3.47;;;15.30;85.50;;;;;;4997794;28;20379;-62
2020/12/02 01:43:00;;;;;;;12.10;2.33;;;15.30;85.90;;;;;;4999804;28;20392;-64
2020/12/02 01:45:33;;;;;;;16.52;3.53;;;15.30;86.80;;;;;;4998769;28;20307;-64
2020/12/02 01:48:30;;;;;;;10.20;2.70;;;15.30;87.60;;;;;;4999964;28;20040;-64
2020/12/02 01:51:10;;;;;;;21.35;3.17;;;15.20;88.70;;;;;;5000335;28;20034;-64
2020/12/02 01:53:59;;;;;;;18.80;4.93;;;15.30;89.60;;;;;;5000787;28;20041;-64
2020/12/02 01:56:32;;;;;;;26.42;3.67;;;15.20;90.20;;;;;;4999227;28;20046;-64
2020/12/02 01:59:10;;;;;;;17.48;3.88;;;15.30;90.50;;;;;;4996049;28;20038;-65
2020/12/02 02:01:46;;;;;;;15.43;4.00;;;15.30;90.90;;;;;;4998342;28;20032;-62
2020/12/02 02:04:19;;;;;;;33.25;5.10;;;15.10;91.40;;;;;;4999495;28;20030;-62
2020/12/02 02:07:09;;;;;;;28.60;5.22;;;14.90;92.40;;;;;;4996710;28;20026;-64
2020/12/02 02:09:36;;;;;;;26.35;5.55;;;14.70;93.80;;;;;;4998544;28;20109;-63
2020/12/02 02:12:33;;;;;;;17.40;4.72;;;14.70;94.80;;;;;;4997212;28;20026;-63
2020/12/02 02:15:32;;;;;;;20.00;4.60;;;14.70;94.50;;;;;;4997069;28;20037;-64
2020/12/02 02:18:02;;;;;;;18.77;4.32;;;14.60;94.70;;;;;;4959573;28;20056;-62
2020/12/02 02:20:32;;;;;;;13.02;3.85;;;14.50;95.20;;;;;;4996253;28;20041;-63
2020/12/02 02:23:00;;;;;;;12.48;4.45;;;14.30;95.30;;;;;;4996945;28;20296;-63
2020/12/02 02:25:27;;;;;;;13.35;4.50;;;14.20;95.60;;;;;;4998112;28;20127;-64
2020/12/02 02:27:55;;;;;;;17.98;4.22;;;14.20;96.10;;;;;;4995503;28;20396;-62
2020/12/02 02:30:22;;;;;;;14.40;4.38;;;14.10;96.30;;;;;;4996675;28;20096;-63
2020/12/02 02:35:24;;;;;;;14.02;4.43;;;14.10;96.10;;;;;;5092103;23;20066;-64
2020/12/02 02:37:51;;;;;;;13.60;4.55;;;14.00;95.60;;;;;;4979819;28;20413;-64
2020/12/02 02:40:18;;;;;;;17.63;5.63;;;14.00;95.50;;;;;;4980566;28;20030;-65
2020/12/02 02:42:48;;;;;;;21.13;4.78;;;13.90;96.30;;;;;;4967119;28;20056;-64
2020/12/02 02:45:21;;;;;;;13.75;4.03;;;13.80;96.30;;;;;;4979970;28;20517;-64
2020/12/02 02:47:48;;;;;;;11.73;3.55;;;13.80;95.90;;;;;;4980703;28;20041;-64
2020/12/02 02:50:19;;;;;;;10.10;3.45;;;13.70;95.20;;;;;;4981711;28;20046;-64
2020/12/02 02:52:46;;;;;;;15.85;3.40;;;13.70;94.90;;;;;;4980772;28;20027;-65
2020/12/02 02:55:26;;;;;;;13.48;3.33;;;13.80;94.20;;;;;;4979426;28;20383;-63
2020/12/02 02:57:54;;;;;;;27.33;6.50;;;13.80;94.60;;;;;;4982368;28;20030;-64
2020/12/02 03:02:57;;;;;;;29.40;6.93;;;13.60;97.90;;;;;;5074789;23;21340;-65
2020/12/02 03:05:24;;;;;;;26.90;4.03;;;13.50;97.30;;;;;;4982821;28;20034;-64
2020/12/02 03:07:55;;;;;;;16.90;3.90;;;13.40;97.00;;;;;;4983599;28;20116;-63
2020/12/02 03:10:25;;;;;;;10.80;2.95;;;13.30;96.30;;;;;;4982070;28;20041;-62
2020/12/02 03:12:52;;;;;;;9.75;4.07;;;13.20;96.80;;;;;;4982726;28;20397;-62
2020/12/02 03:15:20;;;;;;;11.57;3.63;;;13.20;96.00;;;;;;4966258;28;20406;-62
2020/12/02 03:17:47;;;;;;;10.88;3.17;;;13.20;96.00;;;;;;4983913;28;20031;-64
2020/12/02 03:20:24;;;;;;;11.95;3.40;;;13.10;96.10;;;;;;4982947;28;20026;-65
2020/12/02 03:22:50;;;;;;;9.70;3.50;;;13.10;95.90;;;;;;4983178;28;20059;-63
2020/12/02 03:25:25;;;;;;;11.65;3.53;;;13.20;95.10;;;;;;4981391;28;20108;-66
2020/12/02 03:27:52;;;;;;;15.48;4.63;;;13.20;95.30;;;;;;4980643;28;20353;-63
2020/12/02 03:30:19;;;;;;;10.70;3.75;;;13.10;96.30;;;;;;4979692;28;20035;-63
2020/12/02 03:32:46;;;;;;;9.80;3.40;;;12.90;96.40;;;;;;4979814;28;20089;-63
2020/12/02 03:35:12;;;;;;;9.93;4.20;;;12.90;96.20;;;;;;4980671;28;20093;-64
2020/12/02 03:37:39;;;;;;;8.65;3.65;;;12.90;95.60;;;;;;4980346;28;20022;-63
2020/12/02 03:40:07;;;;;;;12.15;4.13;;;12.90;95.70;;;;;;4979331;28;20086;-63
2020/12/02 03:42:34;;;;;;;11.30;3.53;;;12.90;96.20;;;;;;4978723;28;20041;-64
2020/12/02 03:45:01;;;;;;;11.30;3.40;;;12.80;96.10;;;;;;4980038;28;20061;-63
2020/12/02 03:47:28;;;;;;;17.67;3.50;;;12.80;95.70;;;;;;4979947;28;20030;-63
2020/12/02 03:49:55;;;;;;;9.52;3.55;;;12.70;95.90;;;;;;4978753;28;20038;-63
2020/12/02 03:52:21;;;;;;;15.20;3.42;;;12.70;95.40;;;;;;4978066;28;20117;-62
2020/12/02 03:54:48;;;;;;;15.15;3.67;;;12.70;95.70;;;;;;4982210;28;20037;-62
2020/12/02 03:57:15;;;;;;;11.55;3.72;;;12.70;95.30;;;;;;4980079;28;20129;-63
2020/12/02 03:59:41;;;;;;;8.52;3.28;;;12.70;95.70;;;;;;4980634;28;20022;-64
2020/12/02 04:02:08;;;;;;;12.23;3.50;;;12.70;95.60;;;;;;4978673;28;20060;-63
2020/12/02 04:04:35;;;;;;;10.20;3.25;;;12.70;96.10;;;;;;4978383;28;20197;-63
2020/12/02 04:07:01;;;;;;;14.45;3.47;;;12.70;96.00;;;;;;4980083;28;20034;-62
2020/12/02 04:09:28;;;;;;;9.18;4.00;;;12.80;95.10;;;;;;4979789;28;20542;-63
2020/12/02 04:11:55;;;;;;;10.85;3.13;;;12.70;95.50;;;;;;4980147;28;20035;-62
2020/12/02 04:14:21;;;;;;;10.65;3.15;;;12.60;96.20;;;;;;4981978;28;20089;-63
2020/12/02 04:16:48;;;;;;;12.48;4.63;;;12.60;95.90;;;;;;4982120;28;20136;-64
2020/12/02 04:19:15;;;;;;;13.13;3.00;;;12.80;94.40;;;;;;4978359;28;20109;-62
2020/12/02 04:21:41;;;;;;;13.30;3.85;;;12.70;94.50;;;;;;4981846;28;20053;-63
2020/12/02 04:24:08;;;;;;;9.43;3.53;;;12.70;94.40;;;;;;4980432;28;20030;-62
2020/12/02 04:26:35;;;;;;;11.02;3.55;;;12.60;94.80;;;;;;4981275;28;20117;-63
2020/12/02 04:29:01;;;;;;;13.73;4.60;;;12.40;95.40;;;;;;5482236;23;20156;-62
2020/12/02 04:31:29;;;;;;;9.93;3.50;;;12.20;96.10;;;;;;4979272;28;20064;-63
2020/12/02 04:33:56;;;;;;;6.57;3.72;;;12.20;95.90;;;;;;4975472;28;20518;-66
2020/12/02 04:36:23;;;;;;;13.25;4.50;;;12.20;96.00;;;;;;4971890;28;20027;-63
2020/12/02 04:38:50;;;;;;;12.48;4.28;;;12.10;96.30;;;;;;4981527;28;21893;-62
2020/12/02 04:41:17;;;;;;;14.00;4.63;;;12.00;96.60;;;;;;4981735;28;20069;-62
2020/12/02 04:43:53;;;;;;;9.13;3.45;;;11.90;96.60;;;;;;4980003;28;20321;-62
2020/12/02 04:46:25;;;;;;;8.75;3.65;;;11.90;96.60;;;;;;4981574;28;20038;-64
2020/12/02 04:49:00;;;;;;;11.00;3.60;;;11.90;96.30;;;;;;4979510;28;20039;-63
2020/12/02 04:51:28;;;;;;;9.65;3.55;;;11.90;96.30;;;;;;4980869;28;20113;-64
2020/12/02 04:53:59;;;;;;;6.93;3.40;;;11.80;96.40;;;;;;4980389;28;20026;-63
2020/12/02 04:56:28;;;;;;;7.70;3.28;;;11.80;96.40;;;;;;4968648;28;20039;-64
2020/12/02 04:58:56;;;;;;;16.42;3.53;;;11.80;96.40;;;;;;4981002;28;20039;-63
2020/12/02 05:01:25;;;;;;;14.35;5.18;;;11.90;96.30;;;;;;4979450;28;20035;-63
2020/12/02 05:04:00;;;;;;;10.57;3.30;;;12.00;95.60;;;;;;4966515;28;20144;-63
2020/12/02 05:06:37;;;;;;;11.65;3.67;;;12.10;95.70;;;;;;4980803;28;20541;-63
2020/12/02 05:09:18;;;;;;;10.20;3.33;;;11.90;96.30;;;;;;4981868;28;20037;-61
2020/12/02 05:12:05;;;;;;;9.50;3.30;;;11.70;96.60;;;;;;4979548;28;20077;-62
2020/12/02 05:14:44;;;;;;;10.00;3.40;;;11.60;97.10;;;;;;4979984;28;20035;-62
2020/12/02 05:17:27;;;;;;;21.30;3.20;;;11.50;96.90;;;;;;4963608;28;20145;-63
2020/12/02 05:20:09;;;;;;;9.23;3.30;;;11.50;97.20;;;;;;4978991;28;20035;-63
2020/12/02 05:22:39;;;;;;;18.25;3.63;;;11.60;96.40;;;;;;4978791;28;20037;-66
2020/12/02 05:25:14;;;;;;;11.30;3.83;;;11.70;96.70;;;;;;4962314;28;20030;-64
2020/12/02 05:27:45;;;;;;;10.05;2.83;;;11.60;96.50;;;;;;4978433;28;20696;-63
2020/12/02 05:30:22;;;;;;;10.55;3.35;;;11.60;97.60;;;;;;4980024;28;21481;-63
2020/12/02 05:33:07;;;;;;;13.68;4.28;;;11.50;97.60;;;;;;4979823;28;20074;-63
2020/12/02 05:35:34;;;;;;;11.63;3.50;;;11.30;97.90;;;;;;4978202;28;20026;-62
2020/12/02 05:38:03;;;;;;;14.70;3.85;;;11.30;97.90;;;;;;4980854;28;20613;-64
2020/12/02 05:40:32;;;;;;;8.45;3.78;;;11.40;97.70;;;;;;4979879;28;20067;-61
2020/12/02 05:43:06;;;;;;;;;;;11.30;98.10;;;;;;4977656;28;20065;-61
2020/12/02 05:45:41;;;;;;;7.47;2.75;;;11.20;98.40;;;;;;4980636;28;20195;-62
2020/12/02 05:48:18;;;;;;;12.43;3.70;;;11.20;98.40;;;;;;4975252;28;20305;-64
2020/12/02 05:50:45;;;;;;;10.18;3.90;;;11.10;98.40;;;;;;4977530;28;20049;-63
2020/12/02 05:53:21;;;;;;;13.40;3.15;;;11.10;98.30;;;;;;4979435;28;20065;-62
2020/12/02 05:55:49;;;;;;;14.55;2.85;;;11.30;98.00;;;;;;4980138;28;20029;-62
2020/12/02 05:58:24;;;;;;;14.25;3.45;;;11.40;97.00;;;;;;4979888;28;20109;-63
2020/12/02 06:00:51;;;;;;;7.43;3.55;;;11.60;96.40;;;;;;4980289;28;20062;-63
2020/12/02 06:03:23;;;;;;;14.40;3.60;;;11.70;96.20;;;;;;4979023;28;20027;-62
2020/12/02 06:05:50;;;;;;;14.98;4.25;;;11.60;96.00;;;;;;4977966;28;20297;-61
2020/12/02 06:08:36;;;;;;;11.05;4.10;;;11.40;96.60;;;;;;4962815;28;20147;-61
2020/12/02 06:11:18;;;;;;;16.95;3.28;;;11.20;97.50;;;;;;4979007;28;20034;-61
2020/12/02 06:13:52;;;;;;;12.40;4.47;;;11.10;97.60;;;;;;4979466;28;20039;-63
2020/12/02 06:16:28;;;;;;;16.15;3.92;;;11.00;97.70;;;;;;4979101;28;20026;-62
2020/12/02 06:19:02;;;;;;;17.45;4.38;;;11.10;97.50;;;;;;4979035;28;20045;-63
2020/12/02 06:21:44;;;;;;;13.82;5.22;;;11.10;97.60;;;;;;4979676;28;20050;-63
2020/12/02 06:24:31;;;;;;;10.98;3.55;;;11.00;97.40;;;;;;4971558;28;20306;-64
2020/12/02 06:27:01;;;;;;;10.63;5.35;;;11.10;97.40;;;;;;4980514;28;20038;-63
2020/12/02 06:29:37;;;;;;;20.35;4.80;;;11.00;97.80;;;;;;4975801;28;20070;-61
2020/12/02 06:32:11;;;;;;;7.78;4.32;;;10.90;98.40;;;;;;4977583;28;20035;-62
2020/12/02 06:34:38;;;;;;;12.68;4.43;;;10.80;98.70;;;;;;4978235;28;20057;-62
2020/12/02 06:37:18;;;;;;;19.55;4.47;;;10.70;98.90;;;;;;4978737;28;20018;-61
2020/12/02 06:39:48;;;;;;;10.18;3.88;;;10.70;99.20;;;;;;4978576;28;20027;-62
2020/12/02 06:42:23;;;;;;;10.93;4.18;;;10.60;99.30;;;;;;4979375;28;20401;-62
2020/12/02 06:45:07;;;;;;;9.07;4.03;;;10.60;99.10;;;;;;4978334;28;20037;-62
2020/12/02 06:47:37;;;;;;;13.15;4.30;;;10.70;98.60;;;;;;4977702;28;20034;-62
2020/12/02 06:50:11;;;;;;;8.27;4.18;;;10.60;99.10;;;;;;4975938;28;20057;-62
2020/12/02 06:52:38;;;;;;;16.05;5.32;;;10.60;98.70;;;;;;4979535;28;20345;-62
2020/12/02 06:55:16;;;;;;;13.70;4.53;;;10.50;98.70;;;;;;4977566;28;20100;-62
2020/12/02 06:57:44;;;;;;;15.10;5.15;;;10.50;98.80;;;;;;4979684;28;20322;-62
2020/12/02 07:00:24;;;;;;;12.45;4.90;;;10.40;99.00;;;;;;4961790;28;20023;-62
2020/12/02 07:02:58;;;;;;;15.18;5.07;;;10.50;98.90;;;;;;4974966;28;20261;-62
2020/12/02 07:05:44;;;;;;;14.07;5.57;;;10.40;99.00;;;;;;4978585;28;20069;-62
2020/12/02 07:08:21;;;;;;;18.48;7.13;;;10.30;99.20;;;;;;4978475;28;20037;-61
2020/12/02 07:11:03;;;;;;;14.90;5.18;;;10.20;99.60;;;;;;4978879;28;20057;-63
2020/12/02 07:13:33;;;;;;;13.15;5.90;;;10.20;99.50;;;;;;4977042;28;20097;-63
2020/12/02 07:16:00;;;;;;;16.98;5.07;;;10.20;98.90;;;;;;4980294;28;20046;-63
2020/12/02 07:18:27;;;;;;;11.00;5.18;;;10.20;99.20;;;;;;4963983;28;20121;-62
2020/12/02 07:21:16;;;;;;;10.75;4.70;;;10.10;99.50;;;;;;4978488;28;20343;-62
2020/12/02 07:23:42;;;;;;;;;;;10.10;99.30;;;;;;4979018;28;20034;-62
2020/12/02 07:26:12;;;;;;;13.95;4.30;;;10.10;99.00;;;;;;4977226;28;20196;-62
2020/12/02 07:28:38;;;;;;;20.67;4.85;;;10.30;98.30;;;;;;4977612;28;22093;-62
2020/12/02 07:31:27;;;;;;;13.38;5.10;;;10.40;96.90;;;;;;4976604;28;20340;-61
2020/12/02 07:34:26;;;;;;;13.77;4.63;;;10.40;96.00;;;;;;4976767;28;20046;-61
2020/12/02 07:37:08;;;;;;;15.02;4.93;;;10.30;96.70;;;;;;4926587;28;20440;-61
2020/12/02 07:39:43;;;;;;;12.60;4.70;;;10.30;96.70;;;;;;4977719;28;20185;-61
2020/12/02 07:42:22;;;;;;;8.57;4.15;;;10.20;97.10;;;;;;4976047;28;20030;-61
2020/12/02 07:44:56;;;;;;;15.10;4.72;;;10.10;97.50;;;;;;4977494;28;20030;-61
2020/12/02 07:47:23;;;;;;;14.73;4.38;;;10.00;97.30;;;;;;4973823;28;21701;-61
2020/12/02 07:50:06;;;;;;;9.98;3.85;;;10.00;97.40;;;;;;4973374;28;20453;-61
2020/12/02 07:52:41;;;;;;;13.50;4.45;;;9.90;97.80;;;;;;4977505;28;20037;-61
2020/12/02 07:55:10;;;;;;;7.63;3.53;;;9.90;97.30;;;;;;4980558;28;20033;-60
2020/12/02 07:57:37;;;;;;;14.80;3.65;;;10.00;96.10;;;;;;4981173;28;20034;-62
2020/12/02 08:00:34;;;;;;;8.10;3.42;;;10.10;94.90;;;;;;4979682;28;20038;-62
2020/12/02 08:03:00;;;;;;;10.40;3.15;;;10.20;94.60;;;;;;4980393;28;20041;-62
2020/12/02 08:05:49;;;;;;;12.23;3.47;;;10.40;93.70;;;;;;4978976;28;20116;-61
2020/12/02 08:08:15;;;;;;;8.85;4.20;;;10.50;93.60;;;;;;4983193;28;20026;-61
2020/12/02 08:10:42;;;;;;;11.02;2.95;;;10.40;93.70;;;;;;4982685;28;20044;-61
2020/12/02 08:13:16;;;;;;;10.38;3.22;;;10.40;93.90;;;;;;4981053;28;20031;-60
2020/12/02 08:15:45;;;;;;;8.93;2.85;;;10.50;92.80;;;;;;4980456;28;20428;-62
2020/12/02 08:18:17;;;;;;;11.77;3.22;;;10.60;92.60;;;;;;4981923;28;20151;-62
2020/12/02 08:20:45;;;;;;;10.27;2.78;;;10.70;92.00;;;;;;4981638;28;20143;-62
2020/12/02 08:23:23;;;;;;;10.00;3.13;;;10.70;91.60;;;;;;4981150;28;20054;-60
2020/12/02 08:25:57;;;;;;;10.37;3.30;;;10.70;91.20;;;;;;4980728;28;20093;-60
2020/12/02 08:28:28;;;;;;;12.98;4.03;;;10.80;91.80;;;;;;4980482;28;20122;-63
2020/12/02 08:31:06;;;;;;;11.15;3.15;;;10.80;91.90;;;;;;4977879;28;20077;-60
2020/12/02 08:33:32;;;;;;;15.60;3.53;;;10.70;91.50;;;;;;4979201;28;20116;-61
2020/12/02 08:36:08;;;;;;;11.68;3.55;;;10.60;92.10;;;;;;4976809;28;20031;-60
2020/12/02 08:38:40;;;;;;;13.77;3.45;;;10.50;92.80;;;;;;4980396;28;20038;-60
2020/12/02 08:41:17;;;;;;;5.60;3.13;;;10.20;93.50;;;;;;4979670;28;20357;-60
2020/12/02 08:43:48;;;;;;;13.85;4.55;;;9.80;94.40;;;;;;4978723;28;20051;-60
2020/12/02 08:46:19;;;;;;;9.23;2.83;;;9.60;95.20;;;;;;4980000;28;20030;-61
2020/12/02 08:48:51;;;;;;;15.00;3.67;;;9.60;95.50;;;;;;4979377;28;20152;-61
2020/12/02 08:51:21;;;;;;;12.05;3.67;;;9.50;95.70;;;;;;4980555;28;20034;-62
2020/12/02 08:53:49;;;;;;;9.40;3.70;;;9.40;96.00;;;;;;4979273;28;20022;-62
2020/12/02 08:56:32;;;;;;;10.30;3.30;;;9.40;96.20;;;;;;4962809;28;20026;-62
2020/12/02 08:58:59;;;;;;;12.27;3.80;;;9.40;95.80;;;;;;4976917;28;20088;-62
2020/12/02 09:01:26;;;;;;;9.32;3.88;;;9.30;95.80;;;;;;4975271;28;20042;-61
2020/12/02 09:03:53;;;;;;;6.53;2.95;;;9.20;96.20;;;;;;4978783;28;20125;-62
2020/12/02 09:06:20;;;;;;;8.00;3.08;;;9.20;96.30;;;;;;4976960;28;20030;-62
2020/12/02 09:08:48;;;;;;;9.88;4.00;;;9.20;95.70;;;;;;4978833;28;20030;-62
2020/12/02 09:11:20;;;;;;;6.03;3.05;;;9.40;95.50;;;;;;4977616;28;20030;-62
2020/12/02 09:13:47;;;;;;;9.13;3.75;;;9.30;95.20;;;;;;4977380;28;20118;-62
2020/12/02 09:16:23;;;;;;;9.20;3.40;;;9.20;95.50;;;;;;4977210;28;20030;-62
2020/12/02 09:18:50;;;;;;;10.52;3.55;;;9.30;95.50;;;;;;4976280;28;20109;-62
2020/12/02 09:21:16;;;;;;;10.35;3.60;;;9.30;95.90;;;;;;4976882;28;20038;-62
2020/12/02 09:23:43;;;;;;;12.75;3.40;;;9.20;97.00;;;;;;4976250;28;20026;-62
2020/12/02 09:26:10;;;;;;;17.83;4.13;;;9.10;97.40;;;;;;4977838;28;20026;-62
2020/12/02 09:28:36;;;;;;;5.45;3.25;;;9.10;97.50;;;;;;4977185;28;20029;-62
2020/12/02 09:31:03;;;;;;;8.45;3.08;;;9.10;97.20;;;;;;4977204;28;20037;-62
2020/12/02 09:33:29;;;;;;;9.73;3.10;;;9.10;97.00;;;;;;4980095;28;20041;-62
2020/12/02 09:35:56;;;;;;;8.68;3.47;;;9.10;96.30;;;;;;4959087;28;20050;-62
2020/12/02 09:38:23;;;;;;;8.38;3.08;;;9.30;95.70;;;;;;4978979;28;20302;-62
2020/12/02 09:40:51;;;;;;;9.10;2.90;;;9.40;96.10;;;;;;4977061;28;20420;-62
2020/12/02 09:43:35;;;;;;;8.45;3.30;;;9.40;95.40;;;;;;4977040;28;20041;-62
2020/12/02 09:46:07;;;;;;;6.78;2.83;;;9.20;96.00;;;;;;4979040;28;20113;-63
2020/12/02 09:48:34;;;;;;;6.00;2.95;;;9.10;97.40;;;;;;4977708;28;20050;-62
2020/12/02 09:51:19;;;;;;;11.32;2.92;;;8.90;98.20;;;;;;4980121;28;20029;-61
2020/12/02 09:53:48;;;;;;;10.48;3.50;;;8.80;98.80;;;;;;4980419;28;20037;-61
2020/12/02 09:56:17;;;;;;;11.45;2.80;;;8.80;98.50;;;;;;4980126;28;20038;-61
2020/12/02 09:58:43;;;;;;;9.88;2.72;;;8.70;98.30;;;;;;4979716;28;20073;-61
2020/12/02 10:01:24;;;;;;;6.93;3.70;;;8.90;97.60;;;;;;4981071;28;20031;-61
2020/12/02 10:04:17;;;;;;;8.60;2.92;;;8.80;98.60;;;;;;4979563;28;20132;-62
2020/12/02 10:06:59;;;;;;;10.38;3.15;;;8.70;98.30;;;;;;4980383;28;20030;-61
2020/12/02 10:09:49;;;;;;;9.77;2.97;;;8.60;98.60;;;;;;4961742;28;20027;-61
2020/12/02 10:12:40;;;;;;;14.48;2.83;;;8.70;97.90;;;;;;4979255;28;20089;-61
2020/12/02 10:15:25;;;;;;;17.95;2.67;;;8.70;97.00;;;;;;4978731;28;20027;-61
2020/12/02 10:18:26;;;;;;;10.10;3.30;;;8.70;96.00;;;;;;4980503;28;20046;-61
2020/12/02 10:21:34;;;;;;;8.73;2.70;;;8.70;98.40;;;;;;4973287;28;20053;-61
2020/12/02 10:24:25;;;;;;;9.48;2.40;;;8.70;97.70;;;;;;4945024;28;20030;-61
2020/12/02 10:27:29;;;;;;;7.22;2.47;;;8.80;96.70;;;;;;4978932;28;20533;-61
2020/12/02 10:30:21;;;;;;;13.18;2.80;;;8.90;96.90;;;;;;4977613;28;20422;-61
2020/12/02 10:33:00;;;;;;;6.38;3.22;;;8.80;97.40;;;;;;4976066;28;20066;-61
2020/12/02 10:35:30;;;;;;;4.50;1.90;;;8.50;98.80;;;;;;4979321;28;20054;-61
2020/12/02 10:38:05;;;;;;;11.43;2.17;;;8.50;98.70;;;;;;4979745;28;20027;-61
2020/12/02 10:40:46;;;;;;;10.50;2.72;;;8.50;98.50;;;;;;4978936;28;20152;-61
2020/12/02 10:43:28;;;;;;;5.75;2.42;;;8.40;98.60;;;;;;4964871;28;20400;-61
2020/12/02 10:45:58;;;;;;;5.43;2.40;;;8.40;98.30;;;;;;4979216;28;20162;-61
2020/12/02 10:48:43;;;;;;;7.22;2.30;;;8.40;97.40;;;;;;4980269;28;20018;-62
2020/12/02 10:51:14;;;;;;;9.23;3.00;;;8.50;96.40;;;;;;4977360;28;20031;-62
2020/12/02 10:53:43;;;;;;;9.73;2.30;;;8.70;95.10;;;;;;4979845;28;20049;-62
2020/12/02 10:56:10;;;;;;;6.78;2.95;;;8.70;95.70;;;;;;4979821;28;21846;-62
2020/12/02 10:58:37;;;;;;;10.45;2.22;;;8.70;94.80;;;;;;4979443;28;20042;-62
2020/12/02 11:01:08;;;;;;;9.68;2.33;;;8.80;95.10;;;;;;4980194;28;20034;-62
2020/12/02 11:03:38;;;;;;;14.43;2.33;;;8.60;94.80;;;;;;4970575;28;20035;-62
2020/12/02 11:06:20;;;;;;;12.80;2.45;;;8.40;96.40;;;;;;4980636;28;20062;-61
2020/12/02 11:09:02;;;;;;;5.57;2.65;;;8.30;96.90;;;;;;4979940;28;20171;-62
2020/12/02 11:11:37;;;;;;;7.22;2.22;;;8.20;97.50;;;;;;4979204;28;20041;-62
2020/12/02 11:14:09;;;;;;;5.82;2.35;;;8.20;97.10;;;;;;4980344;28;20062;-61
2020/12/02 11:16:36;;;;;;;9.68;2.53;;;8.10;97.30;;;;;;4980222;28;20699;-62
2020/12/02 11:19:17;;;;;;;7.82;2.33;;;8.20;96.70;;;;;;4978216;28;20039;-62
2020/12/02 11:21:44;;;;;;;11.65;3.05;;;8.20;96.70;;;;;;4978036;28;20034;-61
2020/12/02 11:24:25;;;;;;;5.65;2.60;;;8.10;98.70;;;;;;4978031;28;20061;-62
2020/12/02 11:26:52;;;;;;;15.40;2.95;;;8.00;98.90;;;;;;4984306;28;20075;-62
2020/12/02 11:29:20;;;;;;;6.45;2.97;;;7.90;99.00;;;;;;4984395;28;20469;-62
2020/12/02 11:32:10;;;;;;;9.68;2.30;;;7.90;99.30;;;;;;4981614;28;20545;-61
2020/12/02 11:34:48;;;;;;;5.60;2.25;;;7.90;97.70;;;;;;4982354;28;20039;-61
2020/12/02 11:37:41;;;;;;;5.45;2.63;;;8.00;97.20;;;;;;4982458;28;20356;-61
2020/12/02 11:40:13;;;;;;;6.82;2.20;;;8.00;97.10;;;;;;4983237;28;20118;-62
2020/12/02 11:42:53;;;;;;;9.10;2.40;;;8.10;96.30;;;;;;4981655;28;20038;-62
2020/12/02 11:45:28;;;;;;;6.65;2.10;;;8.10;96.20;;;;;;4982791;28;20026;-61
2020/12/02 11:48:03;;;;;;;6.30;1.73;;;8.10;96.80;;;;;;4982622;28;20061;-61
2020/12/02 11:50:44;;;;;;;8.30;2.55;;;8.00;97.60;;;;;;4983066;28;20095;-61
2020/12/02 11:53:35;;;;;;;4.75;2.17;;;7.90;98.10;;;;;;4981421;28;20474;-61
2020/12/02 11:56:02;;;;;;;8.30;2.08;;;7.80;99.10;;;;;;4982297;28;20057;-61
2020/12/02 11:58:29;;;;;;;10.80;2.05;;;7.80;99.50;;;;;;4983628;28;20037;-61
2020/12/02 12:01:04;;;;;;;5.25;1.58;;;7.80;98.70;;;;;;4980998;28;20046;-61
2020/12/02 12:03:40;;;;;;;8.80;1.83;;;7.80;98.00;;;;;;4983496;28;20031;-62
2020/12/02 12:06:12;;;;;;;5.75;2.22;;;7.90;97.80;;;;;;4983001;28;20046;-61
2020/12/02 12:08:38;;;;;;;10.45;2.42;;;7.90;97.70;;;;;;4982869;28;20109;-62
2020/12/02 12:11:19;;;;;;;13.88;1.88;;;7.90;97.70;;;;;;4982632;28;20044;-61
2020/12/02 12:14:03;;;;;;;7.60;2.17;;;7.90;97.50;;;;;;4982755;28;20034;-61
2020/12/02 12:17:05;;;;;;;7.55;1.98;;;7.90;96.70;;;;;;4967656;28;20114;-62
2020/12/02 12:19:55;;;;;;;13.32;2.40;;;7.80;98.00;;;;;;4982229;28;20083;-61
2020/12/02 12:22:27;;;;;;;3.28;1.60;;;7.80;98.50;;;;;;4981591;28;20038;-61
2020/12/02 12:24:59;;;;;;;8.82;2.38;;;7.80;98.70;;;;;;4982476;28;20258;-61
2020/12/02 12:27:27;;;;;;;7.28;2.33;;;7.80;98.70;;;;;;4981807;28;20035;-61
2020/12/02 12:29:54;;;;;;;6.90;2.35;;;7.80;98.70;;;;;;4966699;28;20050;-62
2020/12/02 12:32:33;;;;;;;5.25;2.58;;;7.70;99.10;;;;;;4982834;28;20031;-63
2020/12/02 12:35:05;;;;;;;6.60;1.85;;;7.70;98.50;;;;;;4982044;28;20019;-62
2020/12/02 12:37:54;;;;;;;3.17;1.75;;;7.70;99.30;;;;;;4982544;28;20118;-63
2020/12/02 12:40:34;;;;;;;7.13;2.00;;;7.70;98.50;;;;;;4973344;28;20128;-63
2020/12/02 12:43:04;;;;;;;5.05;1.60;;;7.60;99.40;;;;;;4981027;28;20045;-61
2020/12/02 12:45:44;;;;;;;8.30;2.08;;;7.70;98.10;;;;;;4982713;28;20408;-62
2020/12/02 12:48:20;;;;;;;4.10;1.85;;;7.70;97.70;;;;;;4983075;28;20137;-62
2020/12/02 12:50:51;;;;;;;5.75;1.60;;;7.70;94.90;;;;;;4982126;28;20081;-62
2020/12/02 12:53:20;;;;;;;5.20;1.45;;;7.80;96.40;;;;;;4979354;28;20026;-61
2020/12/02 12:55:52;;;;;;;4.82;2.13;;;7.80;95.30;;;;;;4983233;28;20379;-62
2020/12/02 12:58:19;;;;;;;10.75;2.38;;;7.90;95.30;;;;;;4981632;28;20093;-62
2020/12/02 13:00:49;;;;;;;3.70;1.50;;;7.90;94.80;;;;;;4981458;28;20093;-62
2020/12/02 13:03:30;;;;;;;5.13;1.55;;;7.90;97.30;;;;;;4970414;28;20026;-61
2020/12/02 13:06:23;;;;;;;3.78;1.42;;;7.90;97.90;;;;;;4983709;28;20109;-62
2020/12/02 13:09:20;;;;;;;8.75;1.42;;;7.90;97.40;;;;;;4980800;28;20277;-60
2020/12/02 13:12:10;;;;;;;3.85;1.60;;;7.80;97.30;;;;;;4936393;28;20130;-60
2020/12/02 13:15:09;;;;;;;6.93;1.50;;;7.70;98.90;;;;;;4982392;28;20034;-60
2020/12/02 13:18:14;;;;;;;7.45;1.63;;;7.70;98.30;;;;;;4976574;28;20336;-60
2020/12/02 13:21:17;;;;;;;4.78;1.70;;;7.70;98.10;;;;;;4945055;28;20133;-60
2020/12/02 13:24:19;;;;;;;4.15;1.77;;;7.60;98.40;;;;;;4960218;28;20121;-60
2020/12/02 13:26:50;;;;;;;10.65;2.05;;;7.40;99.90;;;;;;4969999;28;20038;-60